sensor_id;sensor_type;location;lat;lon;timestamp;temperature;humidity
75821;DHT22;64454;51.984;9.838;2023-10-08T00:00:43;20.10;1.00
75821;DHT22;64454;51.984;9.838;2023-10-08T00:03:12;20.10;1.00
75821;DHT22;64454;51.984;9.838;2023-10-08T00:05:39;20.10;1.00
75821;DHT22;64454;51.984;9.838;2023-10-08T00:08:06;20.10;1.00
75821;DHT22;64454;51.984;9.838;2023-10-08T00:10:34;20.10;1.00
75821;DHT22;64454;51.984;9.838;2023-10-08T00:13:00;19.90;1.00
75821;DHT22;64454;51.984;9.838;2023-10-08T00:15:26;20.20;1.00
75821;DHT22;64454;51.984;9.838;2023-10-08T00:17:52;20.20;1.00
75821;DHT22;64454;51.984;9.838;2023-10-08T00:20:19;20.20;1.00
75821;DHT22;64454;51.984;9.838;2023-10-08T00:22:51;20.10;1.00
75821;DHT22;64454;51.984;9.838;2023-10-08T00:25:20;20.10;1.00
75821;DHT22;64454;51.984;9.838;2023-10-08T00:27:46;20.20;1.00
75821;DHT22;64454;51.984;9.838;2023-10-08T00:30:16;20.00;1.00
75821;DHT22;64454;51.984;9.838;2023-10-08T00:32:43;19.80;1.00
75821;DHT22;64454;51.984;9.838;2023-10-08T00:35:09;19.50;1.00
75821;DHT22;64454;51.984;9.838;2023-10-08T00:37:39;19.30;14.60
75821;DHT22;64454;51.984;9.838;2023-10-08T00:40:06;19.20;39.40
75821;DHT22;64454;51.984;9.838;2023-10-08T00:42:45;19.10;56.00
75821;DHT22;64454;51.984;9.838;2023-10-08T00:45:11;19.10;67.20
75821;DHT22;64454;51.984;9.838;2023-10-08T00:47:39;19.20;28.30
75821;DHT22;64454;51.984;9.838;2023-10-08T00:50:09;19.00;1.00
75821;DHT22;64454;51.984;9.838;2023-10-08T00:52:44;18.60;1.00
75821;DHT22;64454;51.984;9.838;2023-10-08T00:55:23;18.20;1.00
75821;DHT22;64454;51.984;9.838;2023-10-08T00:57:57;17.90;1.00
75821;DHT22;64454;51.984;9.838;2023-10-08T01:00:24;17.80;1.00
75821;DHT22;64454;51.984;9.838;2023-10-08T01:02:58;17.70;1.00
75821;DHT22;64454;51.984;9.838;2023-10-08T01:05:26;17.50;1.00
75821;DHT22;64454;51.984;9.838;2023-10-08T01:08:08;17.40;1.00
75821;DHT22;64454;51.984;9.838;2023-10-08T01:10:38;17.40;1.00
75821;DHT22;64454;51.984;9.838;2023-10-08T01:13:06;17.30;1.00
75821;DHT22;64454;51.984;9.838;2023-10-08T01:15:39;17.30;1.00
75821;DHT22;64454;51.984;9.838;2023-10-08T01:18:07;17.50;1.00
75821;DHT22;64454;51.984;9.838;2023-10-08T01:20:40;17.50;1.00
75821;DHT22;64454;51.984;9.838;2023-10-08T01:23:17;17.50;1.00
75821;DHT22;64454;51.984;9.838;2023-10-08T01:25:47;17.50;1.00
75821;DHT22;64454;51.984;9.838;2023-10-08T01:28:16;17.30;1.00
75821;DHT22;64454;51.984;9.838;2023-10-08T01:30:51;17.20;1.00
75821;DHT22;64454;51.984;9.838;2023-10-08T01:33:19;17.00;1.00
75821;DHT22;64454;51.984;9.838;2023-10-08T01:35:53;17.00;1.00
75821;DHT22;64454;51.984;9.838;2023-10-08T01:38:21;17.00;1.00
75821;DHT22;64454;51.984;9.838;2023-10-08T01:40:49;16.90;1.00
75821;DHT22;64454;51.984;9.838;2023-10-08T01:43:17;16.80;1.00
75821;DHT22;64454;51.984;9.838;2023-10-08T01:45:43;16.80;1.00
75821;DHT22;64454;51.984;9.838;2023-10-08T01:48:14;16.80;1.00
75821;DHT22;64454;51.984;9.838;2023-10-08T01:50:41;16.70;1.00
75821;DHT22;64454;51.984;9.838;2023-10-08T01:53:11;16.60;1.00
75821;DHT22;64454;51.984;9.838;2023-10-08T01:55:38;16.60;1.00
75821;DHT22;64454;51.984;9.838;2023-10-08T01:58:13;16.50;1.00
75821;DHT22;64454;51.984;9.838;2023-10-08T02:00:42;16.60;1.00
75821;DHT22;64454;51.984;9.838;2023-10-08T02:03:11;16.60;1.00
75821;DHT22;64454;51.984;9.838;2023-10-08T02:05:39;16.70;1.00
75821;DHT22;64454;51.984;9.838;2023-10-08T02:08:08;16.70;1.00
75821;DHT22;64454;51.984;9.838;2023-10-08T02:10:35;16.80;1.00
75821;DHT22;64454;51.984;9.838;2023-10-08T02:13:04;16.70;1.00
75821;DHT22;64454;51.984;9.838;2023-10-08T02:15:30;16.70;1.00
75821;DHT22;64454;51.984;9.838;2023-10-08T02:17:57;16.50;1.00
75821;DHT22;64454;51.984;9.838;2023-10-08T02:20:24;16.50;1.00
75821;DHT22;64454;51.984;9.838;2023-10-08T02:22:50;16.30;1.00
75821;DHT22;64454;51.984;9.838;2023-10-08T02:25:16;16.00;1.00
75821;DHT22;64454;51.984;9.838;2023-10-08T02:27:44;16.20;1.00
75821;DHT22;64454;51.984;9.838;2023-10-08T02:30:11;16.20;1.00
75821;DHT22;64454;51.984;9.838;2023-10-08T02:32:38;16.20;1.00
75821;DHT22;64454;51.984;9.838;2023-10-08T02:35:08;16.10;1.00
75821;DHT22;64454;51.984;9.838;2023-10-08T02:37:36;16.00;1.00
75821;DHT22;64454;51.984;9.838;2023-10-08T02:40:06;16.00;1.00
75821;DHT22;64454;51.984;9.838;2023-10-08T02:42:42;16.00;1.00
75821;DHT22;64454;51.984;9.838;2023-10-08T02:45:11;15.70;1.00
75821;DHT22;64454;51.984;9.838;2023-10-08T02:47:41;15.60;1.00
75821;DHT22;64454;51.984;9.838;2023-10-08T02:50:08;15.60;1.00
75821;DHT22;64454;51.984;9.838;2023-10-08T02:52:35;15.40;1.00
75821;DHT22;64454;51.984;9.838;2023-10-08T02:55:01;15.40;1.00
75821;DHT22;64454;51.984;9.838;2023-10-08T02:57:30;15.20;1.00
75821;DHT22;64454;51.984;9.838;2023-10-08T02:59:58;15.20;1.00
75821;DHT22;64454;51.984;9.838;2023-10-08T03:02:25;15.20;1.00
75821;DHT22;64454;51.984;9.838;2023-10-08T03:04:52;15.20;1.00
75821;DHT22;64454;51.984;9.838;2023-10-08T03:07:19;15.30;1.00
75821;DHT22;64454;51.984;9.838;2023-10-08T03:09:57;15.30;1.00
75821;DHT22;64454;51.984;9.838;2023-10-08T03:12:29;15.30;1.00
75821;DHT22;64454;51.984;9.838;2023-10-08T03:14:58;15.40;1.00
75821;DHT22;64454;51.984;9.838;2023-10-08T03:17:27;15.40;1.00
75821;DHT22;64454;51.984;9.838;2023-10-08T03:19:54;15.40;1.00
75821;DHT22;64454;51.984;9.838;2023-10-08T03:22:27;15.40;1.00
75821;DHT22;64454;51.984;9.838;2023-10-08T03:24:58;15.40;1.00
75821;DHT22;64454;51.984;9.838;2023-10-08T03:27:39;15.50;1.00
75821;DHT22;64454;51.984;9.838;2023-10-08T03:30:09;15.50;1.00
75821;DHT22;64454;51.984;9.838;2023-10-08T03:32:39;15.50;1.00
75821;DHT22;64454;51.984;9.838;2023-10-08T03:35:08;15.60;1.00
75821;DHT22;64454;51.984;9.838;2023-10-08T03:37:36;15.60;1.00
75821;DHT22;64454;51.984;9.838;2023-10-08T03:40:11;15.70;1.00
75821;DHT22;64454;51.984;9.838;2023-10-08T03:42:50;15.60;1.00
75821;DHT22;64454;51.984;9.838;2023-10-08T03:45:17;15.60;1.00
75821;DHT22;64454;51.984;9.838;2023-10-08T03:47:58;15.50;1.00
75821;DHT22;64454;51.984;9.838;2023-10-08T03:50:35;15.30;1.00
75821;DHT22;64454;51.984;9.838;2023-10-08T03:53:08;15.40;1.00
75821;DHT22;64454;51.984;9.838;2023-10-08T03:55:37;15.50;1.00
75821;DHT22;64454;51.984;9.838;2023-10-08T03:58:06;15.60;1.00
75821;DHT22;64454;51.984;9.838;2023-10-08T04:00:37;15.70;1.00
75821;DHT22;64454;51.984;9.838;2023-10-08T04:03:07;15.70;1.00
75821;DHT22;64454;51.984;9.838;2023-10-08T04:05:36;15.80;1.00
75821;DHT22;64454;51.984;9.838;2023-10-08T04:08:35;15.90;1.00
75821;DHT22;64454;51.984;9.838;2023-10-08T04:11:09;15.90;1.00
75821;DHT22;64454;51.984;9.838;2023-10-08T04:13:55;15.90;1.00
75821;DHT22;64454;51.984;9.838;2023-10-08T04:16:25;16.00;1.00
75821;DHT22;64454;51.984;9.838;2023-10-08T04:18:53;16.00;1.00
75821;DHT22;64454;51.984;9.838;2023-10-08T04:21:21;16.00;1.00
75821;DHT22;64454;51.984;9.838;2023-10-08T04:23:52;16.00;1.00
75821;DHT22;64454;51.984;9.838;2023-10-08T04:26:19;16.00;1.00
75821;DHT22;64454;51.984;9.838;2023-10-08T04:28:49;16.00;1.00
75821;DHT22;64454;51.984;9.838;2023-10-08T04:31:20;16.10;1.00
75821;DHT22;64454;51.984;9.838;2023-10-08T04:33:50;16.10;1.00
75821;DHT22;64454;51.984;9.838;2023-10-08T04:36:18;16.10;1.00
75821;DHT22;64454;51.984;9.838;2023-10-08T04:38:45;16.10;1.00
75821;DHT22;64454;51.984;9.838;2023-10-08T04:41:14;16.10;1.00
75821;DHT22;64454;51.984;9.838;2023-10-08T04:43:45;16.10;1.00
75821;DHT22;64454;51.984;9.838;2023-10-08T04:46:11;16.10;1.00
75821;DHT22;64454;51.984;9.838;2023-10-08T04:48:45;16.10;1.00
75821;DHT22;64454;51.984;9.838;2023-10-08T04:51:11;16.10;1.00
75821;DHT22;64454;51.984;9.838;2023-10-08T04:53:39;16.10;1.00
75821;DHT22;64454;51.984;9.838;2023-10-08T04:56:07;16.10;1.00
75821;DHT22;64454;51.984;9.838;2023-10-08T04:58:39;16.00;1.00
75821;DHT22;64454;51.984;9.838;2023-10-08T05:01:07;16.00;1.00
75821;DHT22;64454;51.984;9.838;2023-10-08T05:03:47;16.10;1.00
75821;DHT22;64454;51.984;9.838;2023-10-08T05:06:34;16.00;1.00
75821;DHT22;64454;51.984;9.838;2023-10-08T05:09:16;16.10;1.00
75821;DHT22;64454;51.984;9.838;2023-10-08T05:11:50;16.10;1.00
75821;DHT22;64454;51.984;9.838;2023-10-08T05:14:36;16.10;1.00
75821;DHT22;64454;51.984;9.838;2023-10-08T05:17:11;16.10;1.00
75821;DHT22;64454;51.984;9.838;2023-10-08T05:19:48;16.10;1.00
75821;DHT22;64454;51.984;9.838;2023-10-08T05:22:27;16.00;1.00
75821;DHT22;64454;51.984;9.838;2023-10-08T05:25:09;16.00;1.00
75821;DHT22;64454;51.984;9.838;2023-10-08T05:27:52;16.00;1.00
75821;DHT22;64454;51.984;9.838;2023-10-08T05:30:34;16.00;1.00
75821;DHT22;64454;51.984;9.838;2023-10-08T05:33:04;16.00;1.00
75821;DHT22;64454;51.984;9.838;2023-10-08T05:35:32;16.00;1.00
75821;DHT22;64454;51.984;9.838;2023-10-08T05:38:15;16.00;1.00
75821;DHT22;64454;51.984;9.838;2023-10-08T05:40:49;15.90;1.00
75821;DHT22;64454;51.984;9.838;2023-10-08T05:43:42;15.80;1.00
75821;DHT22;64454;51.984;9.838;2023-10-08T05:46:21;15.90;1.00
75821;DHT22;64454;51.984;9.838;2023-10-08T05:49:17;15.90;1.00
75821;DHT22;64454;51.984;9.838;2023-10-08T05:52:04;15.80;1.00
75821;DHT22;64454;51.984;9.838;2023-10-08T05:54:49;15.80;1.00
75821;DHT22;64454;51.984;9.838;2023-10-08T05:57:39;15.80;1.00
75821;DHT22;64454;51.984;9.838;2023-10-08T06:00:07;15.80;1.00
75821;DHT22;64454;51.984;9.838;2023-10-08T06:02:57;15.80;1.00
75821;DHT22;64454;51.984;9.838;2023-10-08T06:05:43;15.50;1.00
75821;DHT22;64454;51.984;9.838;2023-10-08T06:08:11;15.50;1.00
75821;DHT22;64454;51.984;9.838;2023-10-08T06:10:40;15.50;1.00
75821;DHT22;64454;51.984;9.838;2023-10-08T06:13:13;15.50;1.00
75821;DHT22;64454;51.984;9.838;2023-10-08T06:15:42;15.50;1.00
75821;DHT22;64454;51.984;9.838;2023-10-08T06:18:14;15.40;1.00
75821;DHT22;64454;51.984;9.838;2023-10-08T06:20:40;15.20;1.00
75821;DHT22;64454;51.984;9.838;2023-10-08T06:23:09;15.20;1.00
75821;DHT22;64454;51.984;9.838;2023-10-08T06:25:38;15.40;1.00
75821;DHT22;64454;51.984;9.838;2023-10-08T06:28:15;15.50;1.00
75821;DHT22;64454;51.984;9.838;2023-10-08T06:30:45;15.50;1.00
75821;DHT22;64454;51.984;9.838;2023-10-08T06:33:11;15.50;1.00
75821;DHT22;64454;51.984;9.838;2023-10-08T06:35:38;15.60;1.00
75821;DHT22;64454;51.984;9.838;2023-10-08T06:38:10;15.60;1.00
75821;DHT22;64454;51.984;9.838;2023-10-08T06:40:36;15.70;1.00
75821;DHT22;64454;51.984;9.838;2023-10-08T06:43:06;15.70;1.00
75821;DHT22;64454;51.984;9.838;2023-10-08T06:45:41;15.80;1.00
75821;DHT22;64454;51.984;9.838;2023-10-08T06:48:08;15.80;1.00
75821;DHT22;64454;51.984;9.838;2023-10-08T06:50:35;15.90;1.00
75821;DHT22;64454;51.984;9.838;2023-10-08T06:53:02;15.90;1.00
75821;DHT22;64454;51.984;9.838;2023-10-08T06:55:33;15.90;1.00
75821;DHT22;64454;51.984;9.838;2023-10-08T06:58:01;15.90;1.00
75821;DHT22;64454;51.984;9.838;2023-10-08T07:00:31;16.00;1.00
75821;DHT22;64454;51.984;9.838;2023-10-08T07:03:06;15.90;1.00
75821;DHT22;64454;51.984;9.838;2023-10-08T07:05:34;15.90;1.00
75821;DHT22;64454;51.984;9.838;2023-10-08T07:08:02;15.80;1.00
75821;DHT22;64454;51.984;9.838;2023-10-08T07:10:32;15.80;1.00
75821;DHT22;64454;51.984;9.838;2023-10-08T07:12:59;15.80;1.00
75821;DHT22;64454;51.984;9.838;2023-10-08T07:15:28;15.80;1.00
75821;DHT22;64454;51.984;9.838;2023-10-08T07:17:55;15.80;1.00
75821;DHT22;64454;51.984;9.838;2023-10-08T07:20:22;15.80;1.00
75821;DHT22;64454;51.984;9.838;2023-10-08T07:22:48;15.70;1.00
75821;DHT22;64454;51.984;9.838;2023-10-08T07:25:20;15.80;1.00
75821;DHT22;64454;51.984;9.838;2023-10-08T07:27:46;15.80;1.00
75821;DHT22;64454;51.984;9.838;2023-10-08T07:30:13;15.90;1.00
75821;DHT22;64454;51.984;9.838;2023-10-08T07:32:52;15.90;1.00
75821;DHT22;64454;51.984;9.838;2023-10-08T07:35:20;16.00;1.00
75821;DHT22;64454;51.984;9.838;2023-10-08T07:37:50;16.10;1.00
75821;DHT22;64454;51.984;9.838;2023-10-08T07:40:19;16.10;1.00
75821;DHT22;64454;51.984;9.838;2023-10-08T07:42:46;16.10;1.00
75821;DHT22;64454;51.984;9.838;2023-10-08T07:45:17;16.20;1.00
75821;DHT22;64454;51.984;9.838;2023-10-08T07:47:43;16.30;1.00
75821;DHT22;64454;51.984;9.838;2023-10-08T07:50:10;16.40;1.00
75821;DHT22;64454;51.984;9.838;2023-10-08T07:52:37;16.60;1.00
75821;DHT22;64454;51.984;9.838;2023-10-08T07:55:05;16.80;1.00
75821;DHT22;64454;51.984;9.838;2023-10-08T07:57:33;17.10;1.00
75821;DHT22;64454;51.984;9.838;2023-10-08T07:59:59;17.30;1.00
75821;DHT22;64454;51.984;9.838;2023-10-08T08:02:43;17.60;1.00
75821;DHT22;64454;51.984;9.838;2023-10-08T08:05:10;17.90;1.00
75821;DHT22;64454;51.984;9.838;2023-10-08T08:07:40;18.30;1.00
75821;DHT22;64454;51.984;9.838;2023-10-08T08:10:09;18.90;1.00
75821;DHT22;64454;51.984;9.838;2023-10-08T08:12:36;19.50;1.00
75821;DHT22;64454;51.984;9.838;2023-10-08T08:15:03;20.10;1.00
75821;DHT22;64454;51.984;9.838;2023-10-08T08:17:40;20.70;1.00
75821;DHT22;64454;51.984;9.838;2023-10-08T08:20:07;21.20;1.00
75821;DHT22;64454;51.984;9.838;2023-10-08T08:22:43;21.50;1.00
75821;DHT22;64454;51.984;9.838;2023-10-08T08:25:16;22.10;1.00
75821;DHT22;64454;51.984;9.838;2023-10-08T08:27:52;22.90;1.00
75821;DHT22;64454;51.984;9.838;2023-10-08T08:30:18;23.60;1.00
75821;DHT22;64454;51.984;9.838;2023-10-08T08:32:46;24.60;1.00
75821;DHT22;64454;51.984;9.838;2023-10-08T08:35:13;25.70;1.00
75821;DHT22;64454;51.984;9.838;2023-10-08T08:37:42;27.00;1.00
75821;DHT22;64454;51.984;9.838;2023-10-08T08:40:10;28.50;1.00
75821;DHT22;64454;51.984;9.838;2023-10-08T08:42:44;29.70;1.00
75821;DHT22;64454;51.984;9.838;2023-10-08T08:45:13;30.20;1.00
75821;DHT22;64454;51.984;9.838;2023-10-08T08:47:47;31.10;1.00
75821;DHT22;64454;51.984;9.838;2023-10-08T08:50:14;31.90;1.00
75821;DHT22;64454;51.984;9.838;2023-10-08T08:52:41;32.60;1.00
75821;DHT22;64454;51.984;9.838;2023-10-08T08:55:08;32.80;1.00
75821;DHT22;64454;51.984;9.838;2023-10-08T08:57:40;32.40;1.00
75821;DHT22;64454;51.984;9.838;2023-10-08T09:00:10;33.00;1.00
75821;DHT22;64454;51.984;9.838;2023-10-08T09:02:38;33.10;1.00
75821;DHT22;64454;51.984;9.838;2023-10-08T09:05:05;33.30;1.00
75821;DHT22;64454;51.984;9.838;2023-10-08T09:07:58;34.50;1.00
75821;DHT22;64454;51.984;9.838;2023-10-08T09:10:29;35.50;1.40
75821;DHT22;64454;51.984;9.838;2023-10-08T09:13:03;36.00;99.90
75821;DHT22;64454;51.984;9.838;2023-10-08T09:15:31;36.30;99.90
75821;DHT22;64454;51.984;9.838;2023-10-08T09:17:58;36.70;99.90
75821;DHT22;64454;51.984;9.838;2023-10-08T09:20:26;37.60;99.90
75821;DHT22;64454;51.984;9.838;2023-10-08T09:23:05;36.90;99.90
75821;DHT22;64454;51.984;9.838;2023-10-08T09:25:37;36.30;99.90
75821;DHT22;64454;51.984;9.838;2023-10-08T09:28:03;36.90;99.90
75821;DHT22;64454;51.984;9.838;2023-10-08T09:30:34;37.90;99.90
75821;DHT22;64454;51.984;9.838;2023-10-08T09:33:05;38.70;99.90
75821;DHT22;64454;51.984;9.838;2023-10-08T09:35:32;39.10;99.90
75821;DHT22;64454;51.984;9.838;2023-10-08T09:37:59;39.20;99.90
75821;DHT22;64454;51.984;9.838;2023-10-08T09:40:28;39.70;99.90
75821;DHT22;64454;51.984;9.838;2023-10-08T09:42:55;39.10;99.90
75821;DHT22;64454;51.984;9.838;2023-10-08T09:45:21;38.90;99.90
75821;DHT22;64454;51.984;9.838;2023-10-08T09:47:52;39.60;99.90
75821;DHT22;64454;51.984;9.838;2023-10-08T09:50:25;39.40;99.90
75821;DHT22;64454;51.984;9.838;2023-10-08T09:53:00;38.20;99.90
75821;DHT22;64454;51.984;9.838;2023-10-08T09:55:29;38.30;99.90
75821;DHT22;64454;51.984;9.838;2023-10-08T09:57:55;38.40;99.90
75821;DHT22;64454;51.984;9.838;2023-10-08T10:00:23;36.90;99.90
75821;DHT22;64454;51.984;9.838;2023-10-08T10:02:57;34.50;99.90
75821;DHT22;64454;51.984;9.838;2023-10-08T10:05:29;32.10;1.00
75821;DHT22;64454;51.984;9.838;2023-10-08T10:07:57;30.10;1.00
75821;DHT22;64454;51.984;9.838;2023-10-08T10:10:27;28.40;1.00
75821;DHT22;64454;51.984;9.838;2023-10-08T10:12:59;26.50;1.00
75821;DHT22;64454;51.984;9.838;2023-10-08T10:15:25;25.70;1.00
75821;DHT22;64454;51.984;9.838;2023-10-08T10:17:52;25.00;1.00
75821;DHT22;64454;51.984;9.838;2023-10-08T10:20:20;24.50;1.00
75821;DHT22;64454;51.984;9.838;2023-10-08T10:22:46;24.20;1.00
75821;DHT22;64454;51.984;9.838;2023-10-08T10:25:16;23.90;1.00
75821;DHT22;64454;51.984;9.838;2023-10-08T10:28:21;23.40;1.00
75821;DHT22;64454;51.984;9.838;2023-10-08T10:30:48;23.00;1.00
75821;DHT22;64454;51.984;9.838;2023-10-08T10:33:16;22.50;1.00
75821;DHT22;64454;51.984;9.838;2023-10-08T10:35:49;22.20;1.00
75821;DHT22;64454;51.984;9.838;2023-10-08T10:38:18;22.30;1.00
75821;DHT22;64454;51.984;9.838;2023-10-08T10:40:48;22.40;1.00
75821;DHT22;64454;51.984;9.838;2023-10-08T10:43:23;22.20;1.00
75821;DHT22;64454;51.984;9.838;2023-10-08T10:45:58;21.90;1.00
75821;DHT22;64454;51.984;9.838;2023-10-08T10:48:26;21.80;1.00
75821;DHT22;64454;51.984;9.838;2023-10-08T10:51:00;21.70;1.00
75821;DHT22;64454;51.984;9.838;2023-10-08T10:53:38;21.60;1.00
75821;DHT22;64454;51.984;9.838;2023-10-08T10:56:12;21.70;1.00
75821;DHT22;64454;51.984;9.838;2023-10-08T10:58:45;21.90;1.00
75821;DHT22;64454;51.984;9.838;2023-10-08T11:01:21;22.20;1.00
75821;DHT22;64454;51.984;9.838;2023-10-08T11:03:50;22.50;1.00
75821;DHT22;64454;51.984;9.838;2023-10-08T11:06:18;22.80;1.00
75821;DHT22;64454;51.984;9.838;2023-10-08T11:08:49;23.00;1.00
75821;DHT22;64454;51.984;9.838;2023-10-08T11:11:17;23.00;1.00
75821;DHT22;64454;51.984;9.838;2023-10-08T11:13:43;22.50;1.00
75821;DHT22;64454;51.984;9.838;2023-10-08T11:16:15;22.70;1.00
75821;DHT22;64454;51.984;9.838;2023-10-08T11:18:44;22.90;1.00
75821;DHT22;64454;51.984;9.838;2023-10-08T11:21:12;23.10;1.00
75821;DHT22;64454;51.984;9.838;2023-10-08T11:23:43;23.40;1.00
75821;DHT22;64454;51.984;9.838;2023-10-08T11:26:18;23.90;1.00
75821;DHT22;64454;51.984;9.838;2023-10-08T11:28:45;24.20;1.00
75821;DHT22;64454;51.984;9.838;2023-10-08T11:31:14;24.90;1.00
75821;DHT22;64454;51.984;9.838;2023-10-08T11:33:45;25.30;1.00
75821;DHT22;64454;51.984;9.838;2023-10-08T11:36:20;24.90;1.00
75821;DHT22;64454;51.984;9.838;2023-10-08T11:38:54;25.30;1.00
75821;DHT22;64454;51.984;9.838;2023-10-08T11:41:27;25.50;1.00
75821;DHT22;64454;51.984;9.838;2023-10-08T11:43:56;25.00;1.00
75821;DHT22;64454;51.984;9.838;2023-10-08T11:46:24;24.50;1.00
75821;DHT22;64454;51.984;9.838;2023-10-08T11:48:58;23.90;1.00
75821;DHT22;64454;51.984;9.838;2023-10-08T11:51:30;23.90;1.00
75821;DHT22;64454;51.984;9.838;2023-10-08T11:53:58;24.20;1.00
75821;DHT22;64454;51.984;9.838;2023-10-08T11:56:25;24.50;1.00
75821;DHT22;64454;51.984;9.838;2023-10-08T11:58:53;24.90;1.00
75821;DHT22;64454;51.984;9.838;2023-10-08T12:01:22;25.20;1.00
75821;DHT22;64454;51.984;9.838;2023-10-08T12:03:49;25.50;1.00
75821;DHT22;64454;51.984;9.838;2023-10-08T12:06:16;25.80;1.00
75821;DHT22;64454;51.984;9.838;2023-10-08T12:08:44;25.70;1.00
75821;DHT22;64454;51.984;9.838;2023-10-08T12:11:15;25.90;1.00
75821;DHT22;64454;51.984;9.838;2023-10-08T12:13:42;25.80;1.00
75821;DHT22;64454;51.984;9.838;2023-10-08T12:16:11;25.50;1.00
75821;DHT22;64454;51.984;9.838;2023-10-08T12:18:44;25.40;1.00
75821;DHT22;64454;51.984;9.838;2023-10-08T12:21:14;25.40;1.00
75821;DHT22;64454;51.984;9.838;2023-10-08T12:23:41;26.00;1.00
75821;DHT22;64454;51.984;9.838;2023-10-08T12:26:10;26.90;1.00
75821;DHT22;64454;51.984;9.838;2023-10-08T12:28:42;27.60;1.00
75821;DHT22;64454;51.984;9.838;2023-10-08T12:31:10;27.70;1.00
75821;DHT22;64454;51.984;9.838;2023-10-08T12:33:37;27.90;1.00
75821;DHT22;64454;51.984;9.838;2023-10-08T12:36:04;29.00;1.00
75821;DHT22;64454;51.984;9.838;2023-10-08T12:38:36;30.10;1.00
75821;DHT22;64454;51.984;9.838;2023-10-08T12:41:03;30.90;1.00
75821;DHT22;64454;51.984;9.838;2023-10-08T12:43:37;31.30;99.90
75821;DHT22;64454;51.984;9.838;2023-10-08T12:46:08;32.40;99.90
75821;DHT22;64454;51.984;9.838;2023-10-08T12:48:44;32.90;99.90
75821;DHT22;64454;51.984;9.838;2023-10-08T12:51:13;33.50;99.90
75821;DHT22;64454;51.984;9.838;2023-10-08T12:53:43;33.40;99.90
75821;DHT22;64454;51.984;9.838;2023-10-08T12:56:17;33.40;99.90
75821;DHT22;64454;51.984;9.838;2023-10-08T12:58:47;31.60;99.90
75821;DHT22;64454;51.984;9.838;2023-10-08T13:01:14;30.10;1.40
75821;DHT22;64454;51.984;9.838;2023-10-08T13:03:43;28.70;1.00
75821;DHT22;64454;51.984;9.838;2023-10-08T13:06:13;27.80;1.00
75821;DHT22;64454;51.984;9.838;2023-10-08T13:08:47;26.90;1.00
75821;DHT22;64454;51.984;9.838;2023-10-08T13:11:15;27.20;1.00
75821;DHT22;64454;51.984;9.838;2023-10-08T13:13:41;27.50;1.00
75821;DHT22;64454;51.984;9.838;2023-10-08T13:16:07;28.30;1.00
75821;DHT22;64454;51.984;9.838;2023-10-08T13:18:34;29.70;1.00
75821;DHT22;64454;51.984;9.838;2023-10-08T13:21:03;30.90;99.90
75821;DHT22;64454;51.984;9.838;2023-10-08T13:23:30;31.50;99.90
75821;DHT22;64454;51.984;9.838;2023-10-08T13:25:59;31.50;99.90
75821;DHT22;64454;51.984;9.838;2023-10-08T13:28:30;31.10;99.90
75821;DHT22;64454;51.984;9.838;2023-10-08T13:30:59;30.10;99.90
75821;DHT22;64454;51.984;9.838;2023-10-08T13:33:26;28.80;1.00
75821;DHT22;64454;51.984;9.838;2023-10-08T13:35:54;27.70;1.00
75821;DHT22;64454;51.984;9.838;2023-10-08T13:38:21;26.20;1.00
75821;DHT22;64454;51.984;9.838;2023-10-08T13:40:48;25.20;1.00
75821;DHT22;64454;51.984;9.838;2023-10-08T13:43:32;25.30;1.00
75821;DHT22;64454;51.984;9.838;2023-10-08T13:46:01;26.30;1.00
75821;DHT22;64454;51.984;9.838;2023-10-08T13:48:30;26.80;1.00
75821;DHT22;64454;51.984;9.838;2023-10-08T13:51:00;26.90;1.00
75821;DHT22;64454;51.984;9.838;2023-10-08T13:53:28;26.50;1.00
75821;DHT22;64454;51.984;9.838;2023-10-08T13:55:57;26.70;1.00
75821;DHT22;64454;51.984;9.838;2023-10-08T13:58:26;26.40;1.00
75821;DHT22;64454;51.984;9.838;2023-10-08T14:00:54;26.30;1.00
75821;DHT22;64454;51.984;9.838;2023-10-08T14:03:20;25.60;1.00
75821;DHT22;64454;51.984;9.838;2023-10-08T14:05:47;25.30;1.00
75821;DHT22;64454;51.984;9.838;2023-10-08T14:08:16;24.30;1.00
75821;DHT22;64454;51.984;9.838;2023-10-08T14:10:43;23.60;1.00
75821;DHT22;64454;51.984;9.838;2023-10-08T14:13:10;23.10;1.00
75821;DHT22;64454;51.984;9.838;2023-10-08T14:15:36;22.60;1.00
75821;DHT22;64454;51.984;9.838;2023-10-08T14:18:10;22.40;1.00
75821;DHT22;64454;51.984;9.838;2023-10-08T14:20:42;22.20;1.00
75821;DHT22;64454;51.984;9.838;2023-10-08T14:23:12;21.90;1.00
75821;DHT22;64454;51.984;9.838;2023-10-08T14:25:43;21.50;1.00
75821;DHT22;64454;51.984;9.838;2023-10-08T14:28:11;21.40;1.00
75821;DHT22;64454;51.984;9.838;2023-10-08T14:30:48;21.10;1.00
75821;DHT22;64454;51.984;9.838;2023-10-08T14:33:19;21.00;1.00
75821;DHT22;64454;51.984;9.838;2023-10-08T14:35:52;21.00;1.00
75821;DHT22;64454;51.984;9.838;2023-10-08T14:38:37;21.10;1.00
75821;DHT22;64454;51.984;9.838;2023-10-08T14:41:22;21.10;1.00
75821;DHT22;64454;51.984;9.838;2023-10-08T14:44:06;20.80;1.00
75821;DHT22;64454;51.984;9.838;2023-10-08T14:46:33;20.60;1.00
75821;DHT22;64454;51.984;9.838;2023-10-08T14:49:03;20.50;1.00
75821;DHT22;64454;51.984;9.838;2023-10-08T14:51:36;20.20;1.00
75821;DHT22;64454;51.984;9.838;2023-10-08T14:54:06;20.40;1.00
75821;DHT22;64454;51.984;9.838;2023-10-08T14:56:34;21.20;1.00
75821;DHT22;64454;51.984;9.838;2023-10-08T14:59:02;22.30;1.00
75821;DHT22;64454;51.984;9.838;2023-10-08T15:01:28;22.80;1.00
75821;DHT22;64454;51.984;9.838;2023-10-08T15:03:54;22.80;1.00
75821;DHT22;64454;51.984;9.838;2023-10-08T15:06:21;22.60;1.00
75821;DHT22;64454;51.984;9.838;2023-10-08T15:08:48;22.80;1.00
75821;DHT22;64454;51.984;9.838;2023-10-08T15:11:15;23.30;1.00
75821;DHT22;64454;51.984;9.838;2023-10-08T15:13:42;23.70;1.00
75821;DHT22;64454;51.984;9.838;2023-10-08T15:16:11;23.80;1.00
75821;DHT22;64454;51.984;9.838;2023-10-08T15:18:38;23.70;1.00
75821;DHT22;64454;51.984;9.838;2023-10-08T15:21:08;23.90;1.00
75821;DHT22;64454;51.984;9.838;2023-10-08T15:23:34;23.90;1.00
75821;DHT22;64454;51.984;9.838;2023-10-08T15:26:01;23.90;1.00
75821;DHT22;64454;51.984;9.838;2023-10-08T15:28:28;23.80;1.00
75821;DHT22;64454;51.984;9.838;2023-10-08T15:30:55;23.90;1.00
75821;DHT22;64454;51.984;9.838;2023-10-08T15:33:22;24.10;1.00
75821;DHT22;64454;51.984;9.838;2023-10-08T15:35:51;23.80;1.00
75821;DHT22;64454;51.984;9.838;2023-10-08T15:38:18;23.60;1.00
75821;DHT22;64454;51.984;9.838;2023-10-08T15:40:44;23.20;1.00
75821;DHT22;64454;51.984;9.838;2023-10-08T15:43:10;22.70;1.00
75821;DHT22;64454;51.984;9.838;2023-10-08T15:45:37;21.90;1.00
75821;DHT22;64454;51.984;9.838;2023-10-08T15:48:05;21.40;1.00
75821;DHT22;64454;51.984;9.838;2023-10-08T15:50:33;21.10;1.00
75821;DHT22;64454;51.984;9.838;2023-10-08T15:53:00;20.70;1.00
75821;DHT22;64454;51.984;9.838;2023-10-08T15:55:26;20.20;1.00
75821;DHT22;64454;51.984;9.838;2023-10-08T15:57:52;20.00;1.00
75821;DHT22;64454;51.984;9.838;2023-10-08T16:00:19;19.70;1.00
75821;DHT22;64454;51.984;9.838;2023-10-08T16:02:45;19.40;1.00
75821;DHT22;64454;51.984;9.838;2023-10-08T16:05:13;19.30;1.00